Time;durP1;ratioP1;P1;durP2;ratioP2;P2;SDS_P1;SDS_P2;PMS_P1;PMS_P2;Temp;Humidity;BMP_temperature;BMP_pressure;BME280_temperature;BME280_humidity;BME280_pressure;Samples;Min_cycle;Max_cycle;Signal;HPM_P1;HPM_P2
2021/07/27 00:01:16;;;;;;;;;;;;;;;22.77;85.45;98617.59;4975056;28;20387;-64
2021/07/27 00:03:42;;;;;;;;;;;;;;;23.06;76.84;98620.28;4971012;28;19921;-64
2021/07/27 00:06:08;;;;;;;;;;;;;;;23.18;84.90;98620.97;4971600;28;19914;-64
2021/07/27 00:08:36;;;;;;;;;;;;;;;22.40;84.93;98610.34;4972454;28;19924;-64
2021/07/27 00:11:05;;;;;;;;;;;;;;;22.76;87.42;98621.16;4970921;28;19929;-64
2021/07/27 00:13:31;;;;;;;;;;;;;;;23.25;80.11;98606.31;4972082;28;20372;-65
2021/07/27 00:15:56;;;;;;;;;;;;;;;22.69;81.08;98604.31;4970935;28;19914;-64
2021/07/27 00:18:22;;;;;;;;;;;;;;;22.16;87.29;98607.16;4970505;28;19914;-65
2021/07/27 00:20:48;;;;;;;;;;;;;;;22.68;87.32;98602.66;4969700;28;19972;-64
2021/07/27 00:23:14;;;;;;;;;;;;;;;22.90;87.18;98607.66;4955161;28;19914;-64
2021/07/27 00:25:40;;;;;;;;;;;;;;;21.90;94.79;98602.38;4968263;28;20042;-64
2021/07/27 00:28:05;;;;;;;;;;;;;;;22.92;82.95;98603.09;4969219;28;19918;-64
2021/07/27 00:30:31;;;;;;;;;;;;;;;22.54;83.92;98607.31;4955759;28;19925;-64
2021/07/27 00:32:56;;;;;;;;;;;;;;;22.95;80.25;98615.94;4970858;28;20279;-64
2021/07/27 00:35:22;;;;;;;;;;;;;;;22.96;85.57;98612.34;4969857;28;20411;-64
2021/07/27 00:37:57;;;;;;;;;;;;;;;22.85;85.16;98601.97;4971000;28;20008;-63
2021/07/27 00:40:23;;;;;;;;;;;;;;;23.13;83.33;98597.75;4970203;28;19918;-64
2021/07/27 00:42:48;;;;;;;;;;;;;;;22.63;87.53;98599.63;4970541;28;19968;-64
2021/07/27 00:45:14;;;;;;;;;;;;;;;22.60;88.57;98599.88;4954753;28;20024;-64
2021/07/27 00:47:40;;;;;;;;;;;;;;;22.96;82.22;98601.84;4969857;28;20348;-64
2021/07/27 00:50:07;;;;;;;;;;;;;;;22.81;81.33;98600.59;4970315;28;20026;-64
2021/07/27 00:52:33;;;;;;;;;;;;;;;22.41;87.71;98598.84;4967082;28;19961;-64
2021/07/27 00:54:58;;;;;;;;;;;;;;;22.42;91.43;98597.91;4969862;28;19997;-64
2021/07/27 00:57:24;;;;;;;;;;;;;;;22.66;80.08;98599.34;4954008;28;20025;-63
2021/07/27 00:59:49;;;;;;;;;;;;;;;22.56;85.99;98599.31;4969333;28;20001;-64
2021/07/27 01:02:15;;;;;;;;;;;;;;;22.33;86.25;98599.53;4969068;28;20395;-64
2021/07/27 01:04:41;;;;;;;;;;;;;;;22.51;89.90;98596.25;4967951;28;19914;-63
2021/07/27 01:07:07;;;;;;;;;;;;;;;22.76;78.81;98601.00;4955715;28;20030;-64
2021/07/27 01:09:32;;;;;;;;;;;;;;;22.65;82.53;98598.50;4970119;28;20315;-64
2021/07/27 01:11:58;;;;;;;;;;;;;;;22.06;94.35;98602.72;4970863;28;19977;-63
2021/07/27 01:14:23;;;;;;;;;;;;;;;22.06;89.90;98596.66;4969806;28;19918;-64
2021/07/27 01:16:49;;;;;;;;;;;;;;;22.58;87.47;98596.53;4970144;28;19914;-64
2021/07/27 01:43:20;;;;;;;;;;;;;;;22.54;89.34;98586.31;4971125;28;20411;-65
2021/07/27 01:45:46;;;;;;;;;;;;;;;22.46;86.43;98588.78;4969566;28;19918;-63
2021/07/27 01:48:11;;;;;;;;;;;;;;;22.47;90.15;98582.59;4955344;28;20406;-65
2021/07/27 01:50:37;;;;;;;;;;;;;;;22.50;88.79;98590.19;4971434;28;19925;-64
2021/07/27 01:53:04;;;;;;;;;;;;;;;22.04;92.25;98594.16;4969936;28;20027;-65
2021/07/27 01:55:34;;;;;;;;;;;;;;;22.10;98.22;98598.88;4971243;28;19965;-63
2021/07/27 01:57:59;;;;;;;;;;;;;;;22.12;95.72;98596.97;4972049;28;19918;-64
2021/07/27 02:00:25;;;;;;;;;;;;;;;22.14;93.61;98600.25;4970322;28;19919;-64
2021/07/27 02:02:50;;;;;;;;;;;;;;;22.26;93.69;98600.19;4954292;28;20016;-64
2021/07/27 02:05:16;;;;;;;;;;;;;;;22.38;86.71;98600.94;4969833;28;20431;-64
2021/07/27 02:07:54;;;;;;;;;;;;;;;22.69;89.14;98599.06;4969642;28;20443;-64
2021/07/27 02:10:20;;;;;;;;;;;;;;;22.35;93.07;98602.00;4970245;28;20429;-64
2021/07/27 02:12:59;;;;;;;;;;;;;;;22.16;89.45;98608.00;4969606;28;19930;-64
2021/07/27 02:15:24;;;;;;;;;;;;;;;22.68;87.07;98597.41;4955806;28;19918;-63
2021/07/27 02:17:50;;;;;;;;;;;;;;;22.63;93.01;98599.63;4955913;28;20398;-64
2021/07/27 02:20:16;;;;;;;;;;;;;;;22.24;95.40;98602.97;4973592;28;20375;-64
2021/07/27 02:22:41;;;;;;;;;;;;;;;22.43;94.33;98596.94;4958209;28;20271;-64
2021/07/27 02:25:08;;;;;;;;;;;;;;;21.91;92.42;98604.84;4972995;28;19988;-64
2021/07/27 02:27:36;;;;;;;;;;;;;;;22.21;100.00;98604.97;4973804;28;19920;-64
2021/07/27 02:30:06;;;;;;;;;;;;;;;22.11;100.00;98610.19;4973760;28;19993;-64
2021/07/27 02:32:32;;;;;;;;;;;;;;;22.49;94.75;98604.28;4972261;28;19941;-64
2021/07/27 02:34:58;;;;;;;;;;;;;;;22.51;90.37;98602.34;4972928;28;19914;-64
2021/07/27 02:37:23;;;;;;;;;;;;;;;22.34;92.34;98598.56;4973396;28;20288;-64
2021/07/27 02:39:49;;;;;;;;;;;;;;;22.32;95.75;98602.28;4972190;28;19929;-64
2021/07/27 02:42:14;;;;;;;;;;;;;;;22.18;91.71;98600.00;4972332;28;19973;-64
2021/07/27 02:44:39;;;;;;;;;;;;;;;21.88;94.26;98599.06;4975100;28;19914;-65
2021/07/27 02:47:05;;;;;;;;;;;;;;;22.21;98.32;98597.09;4972974;28;20283;-64
2021/07/27 02:49:30;;;;;;;;;;;;;;;21.65;100.00;98598.38;4974291;28;20052;-64
2021/07/27 02:51:57;;;;;;;;;;;;;;;21.65;100.00;98601.81;4977162;28;20382;-64
2021/07/27 02:54:22;;;;;;;;;;;;;;;22.05;97.82;98601.03;4973033;28;19919;-64
2021/07/27 02:56:48;;;;;;;;;;;;;;;21.46;100.00;98609.56;4974314;28;20264;-63
2021/07/27 02:59:13;;;;;;;;;;;;;;;22.00;94.19;98605.84;4971527;28;19914;-65
2021/07/27 03:01:39;;;;;;;;;;;;;;;22.30;96.91;98607.66;4972729;28;19918;-64
2021/07/27 03:04:04;;;;;;;;;;;;;;;22.02;95.38;98611.81;4973055;28;19922;-64
2021/07/27 03:06:31;;;;;;;;;;;;;;;21.95;89.95;98605.44;4971254;28;19922;-63
2021/07/27 03:11:23;;;;;;;;;;;;;;;22.12;93.79;98607.44;4973802;28;19922;-63
2021/07/27 03:13:49;;;;;;;;;;;;;;;20.93;100.00;98612.97;4972741;28;19914;-64
2021/07/27 03:16:17;;;;;;;;;;;;;;;20.98;100.00;98615.22;4974425;28;20446;-64
2021/07/27 03:18:48;;;;;;;;;;;;;;;21.47;99.29;98616.47;4986290;28;19918;-64
2021/07/27 03:21:21;;;;;;;;;;;;;;;21.71;93.12;98611.81;4972477;28;19966;-63
2021/07/27 03:23:47;;;;;;;;;;;;;;;21.24;95.82;98615.72;4958258;28;19918;-64
2021/07/27 03:26:12;;;;;;;;;;;;;;;21.04;100.00;98618.16;4972910;28;19972;-64
2021/07/27 03:28:39;;;;;;;;;;;;;;;21.53;96.56;98621.22;4973092;28;19972;-64
2021/07/27 03:31:05;;;;;;;;;;;;;;;21.65;98.74;98619.34;4972245;28;19918;-64
2021/07/27 03:33:30;;;;;;;;;;;;;;;21.12;98.61;98622.81;4971506;28;20022;-64
2021/07/27 03:35:55;;;;;;;;;;;;;;;21.71;99.36;98619.66;4972753;28;20010;-63
2021/07/27 03:38:21;;;;;;;;;;;;;;;21.76;99.64;98621.91;4958467;28;20518;-64
2021/07/27 03:40:46;;;;;;;;;;;;;;;22.11;99.12;98616.25;4972569;28;19988;-64
2021/07/27 03:43:12;;;;;;;;;;;;;;;21.78;93.40;98616.50;4973820;28;19921;-64
2021/07/27 03:45:37;;;;;;;;;;;;;;;21.89;93.52;98621.66;4974025;28;19977;-64
2021/07/27 03:48:03;;;;;;;;;;;;;;;21.93;97.65;98617.84;4973674;28;19918;-64
2021/07/27 03:50:28;;;;;;;;;;;;;;;22.02;92.56;98614.44;4971753;28;19914;-64
2021/07/27 03:52:54;;;;;;;;;;;;;;;22.16;94.85;98618.50;4972760;28;20280;-64
2021/07/27 03:55:19;;;;;;;;;;;;;;;21.68;99.48;98624.31;4972728;28;19914;-65
2021/07/27 03:57:45;;;;;;;;;;;;;;;21.68;97.12;98613.84;4973448;28;19918;-64
2021/07/27 04:00:10;;;;;;;;;;;;;;;21.81;93.29;98616.25;4972459;28;20005;-64
2021/07/27 04:02:36;;;;;;;;;;;;;;;21.39;91.90;98624.09;4955647;28;20434;-63
2021/07/27 04:05:05;;;;;;;;;;;;;;;21.67;91.03;98618.25;4973023;28;19918;-63
2021/07/27 04:07:30;;;;;;;;;;;;;;;20.83;100.00;98618.13;4973857;28;19918;-64
2021/07/27 04:10:00;;;;;;;;;;;;;;;20.96;100.00;98622.34;4972360;28;20269;-64
2021/07/27 04:12:25;;;;;;;;;;;;;;;21.00;100.00;98624.59;4971957;28;19926;-63
2021/07/27 04:14:51;;;;;;;;;;;;;;;21.13;100.00;98629.69;4956022;28;19965;-64
2021/07/27 04:17:17;;;;;;;;;;;;;;;21.18;100.00;98627.50;4978123;28;19957;-64
2021/07/27 04:19:43;;;;;;;;;;;;;;;21.34;100.00;98623.66;4972329;28;19918;-64
2021/07/27 04:22:08;;;;;;;;;;;;;;;21.19;100.00;98631.81;4973133;28;19918;-65
2021/07/27 04:24:33;;;;;;;;;;;;;;;21.28;96.55;98628.44;4972385;28;19961;-64
2021/07/27 04:26:59;;;;;;;;;;;;;;;20.99;96.04;98628.19;4971899;28;19914;-64
2021/07/27 04:29:24;;;;;;;;;;;;;;;20.56;100.00;98628.16;4973455;28;19929;-64
2021/07/27 04:31:50;;;;;;;;;;;;;;;20.46;100.00;98634.09;4972219;28;20004;-64
2021/07/27 04:34:15;;;;;;;;;;;;;;;21.08;100.00;98632.69;4972741;28;19914;-64
2021/07/27 04:36:41;;;;;;;;;;;;;;;21.22;100.00;98628.94;4972249;28;20284;-64
2021/07/27 04:39:06;;;;;;;;;;;;;;;21.11;100.00;98631.59;4971512;28;19956;-63
2021/07/27 04:41:35;;;;;;;;;;;;;;;21.19;100.00;98628.34;4971685;28;19914;-64
2021/07/27 04:44:01;;;;;;;;;;;;;;;21.27;96.17;98632.00;4972329;28;19953;-64
2021/07/27 04:46:26;;;;;;;;;;;;;;;21.25;100.00;98633.91;4971531;28;19965;-64
2021/07/27 04:48:55;;;;;;;;;;;;;;;21.01;100.00;98630.69;4971537;28;19914;-64
2021/07/27 04:51:20;;;;;;;;;;;;;;;21.52;100.00;98641.31;4971738;28;20335;-64
2021/07/27 04:53:48;;;;;;;;;;;;;;;21.37;100.00;98641.72;4973247;28;19914;-63
2021/07/27 04:56:13;;;;;;;;;;;;;;;21.24;100.00;98644.53;4971451;28;20000;-64
2021/07/27 04:58:39;;;;;;;;;;;;;;;20.91;100.00;98637.63;4971785;28;20049;-64
2021/07/27 05:01:04;;;;;;;;;;;;;;;21.31;100.00;98640.44;4971512;28;19976;-64
2021/07/27 05:03:30;;;;;;;;;;;;;;;21.76;100.00;98645.50;4971248;28;20265;-64
2021/07/27 05:05:55;;;;;;;;;;;;;;;21.69;100.00;98653.03;4971073;28;19921;-64
2021/07/27 05:08:21;;;;;;;;;;;;;;;21.90;100.00;98650.38;4971439;28;20045;-65
2021/07/27 05:10:46;;;;;;;;;;;;;;;21.47;100.00;98646.13;4970565;28;19918;-64
2021/07/27 05:13:11;;;;;;;;;;;;;;;21.43;100.00;98646.50;4971523;28;19918;-63
2021/07/27 05:15:37;;;;;;;;;;;;;;;21.64;100.00;98652.56;4971117;28;20260;-65
2021/07/27 05:18:02;;;;;;;;;;;;;;;22.06;98.76;98649.91;4955281;28;19968;-64
2021/07/27 05:20:28;;;;;;;;;;;;;;;21.89;100.00;98648.72;4971140;28;19918;-63
2021/07/27 05:22:53;;;;;;;;;;;;;;;22.36;100.00;98640.41;4970900;28;20483;-63
2021/07/27 05:25:19;;;;;;;;;;;;;;;22.05;100.00;98643.00;4971046;28;19926;-64
2021/07/27 05:27:46;;;;;;;;;;;;;;;21.97;100.00;98647.25;4970388;28;19918;-64
2021/07/27 05:30:12;;;;;;;;;;;;;;;22.04;100.00;98636.09;4970893;28;19938;-64
2021/07/27 05:32:38;;;;;;;;;;;;;;;22.28;100.00;98637.59;4969683;28;20018;-63
2021/07/27 05:35:03;;;;;;;;;;;;;;;22.69;98.45;98635.81;4970795;28;20006;-64
2021/07/27 05:37:29;;;;;;;;;;;;;;;22.69;96.21;98634.03;4970973;28;19968;-64
2021/07/27 05:39:55;;;;;;;;;;;;;;;22.51;99.50;98640.88;4971311;28;19922;-64
2021/07/27 05:42:22;;;;;;;;;;;;;;;22.50;100.00;98636.59;4970989;28;20524;-64
2021/07/27 05:44:48;;;;;;;;;;;;;;;22.74;100.00;98633.63;4974297;28;19937;-64
2021/07/27 05:47:13;;;;;;;;;;;;;;;22.34;100.00;98637.09;4970968;28;19914;-64
2021/07/27 05:49:39;;;;;;;;;;;;;;;22.57;96.38;98642.97;4970089;28;19914;-64
2021/07/27 05:52:05;;;;;;;;;;;;;;;22.61;100.00;98638.28;4972633;28;20269;-65
2021/07/27 05:54:30;;;;;;;;;;;;;;;22.02;100.00;98639.81;4974952;28;19925;-64
2021/07/27 05:56:56;;;;;;;;;;;;;;;22.44;100.00;98637.97;4975036;28;19921;-65
2021/07/27 05:59:21;;;;;;;;;;;;;;;22.62;100.00;98639.94;4976119;28;20368;-65
2021/07/27 06:01:47;;;;;;;;;;;;;;;22.22;100.00;98643.41;4974514;28;19914;-64
2021/07/27 06:04:12;;;;;;;;;;;;;;;22.68;100.00;98634.16;4974294;28;20276;-63
2021/07/27 06:06:38;;;;;;;;;;;;;;;22.96;100.00;98643.84;4974266;28;19922;-65
2021/07/27 06:09:27;;;;;;;;;;;;;;;23.36;96.32;98640.31;4973889;28;19949;-64
2021/07/27 06:11:52;;;;;;;;;;;;;;;22.88;100.00;98646.34;4974048;28;19969;-63
2021/07/27 06:14:17;;;;;;;;;;;;;;;23.68;98.79;98633.91;4992184;23;19988;-61
2021/07/27 06:16:43;;;;;;;;;;;;;;;23.65;96.88;98628.09;4996569;28;19922;-62
2021/07/27 06:19:09;;;;;;;;;;;;;;;23.01;99.35;98634.78;4986023;28;19975;-62
2021/07/27 06:21:38;;;;;;;;;;;;;;;22.52;100.00;98635.50;4988439;28;20379;-61
2021/07/27 06:24:04;;;;;;;;;;;;;;;21.97;100.00;98639.41;4999683;28;19914;-63
2021/07/27 06:26:30;;;;;;;;;;;;;;;21.46;100.00;98641.84;4991896;28;19918;-62
2021/07/27 06:28:55;;;;;;;;;;;;;;;21.09;100.00;98650.03;4988769;28;19921;-62
2021/07/27 06:31:21;;;;;;;;;;;;;;;22.14;100.00;98644.00;4980086;28;20004;-63
2021/07/27 06:33:46;;;;;;;;;;;;;;;22.38;100.00;98646.38;4980359;28;19922;-62
2021/07/27 06:36:12;;;;;;;;;;;;;;;22.17;100.00;98650.78;4981153;28;20012;-63
2021/07/27 06:38:38;;;;;;;;;;;;;;;22.51;100.00;98644.34;4985418;28;19977;-62
2021/07/27 06:41:07;;;;;;;;;;;;;;;23.68;97.82;98643.63;4987481;28;19921;-61
2021/07/27 06:43:33;;;;;;;;;;;;;;;23.48;99.29;98648.06;4959447;28;20485;-63
2021/07/27 06:45:59;;;;;;;;;;;;;;;22.54;100.00;98653.72;4987729;28;20004;-62
2021/07/27 06:48:24;;;;;;;;;;;;;;;23.61;96.78;98651.22;4986048;28;19921;-62
2021/07/27 06:50:54;;;;;;;;;;;;;;;22.77;100.00;98647.28;4988954;28;20064;-63
2021/07/27 06:53:19;;;;;;;;;;;;;;;23.66;100.00;98640.28;4984597;28;19924;-63
2021/07/27 06:55:45;;;;;;;;;;;;;;;24.07;93.82;98649.63;4987220;28;19913;-63
2021/07/27 06:58:11;;;;;;;;;;;;;;;24.06;95.42;98645.31;4988015;28;19937;-63
2021/07/27 07:00:38;;;;;;;;;;;;;;;24.26;86.64;98642.63;4979785;28;19925;-62
2021/07/27 07:03:04;;;;;;;;;;;;;;;24.10;92.67;98632.72;4983919;28;19914;-63
2021/07/27 07:05:30;;;;;;;;;;;;;;;23.74;94.09;98646.53;4993070;28;20004;-64
2021/07/27 07:07:55;;;;;;;;;;;;;;;24.74;83.66;98641.59;4994269;28;20381;-62
2021/07/27 07:10:21;;;;;;;;;;;;;;;24.06;90.88;98649.75;4994137;28;19921;-62
2021/07/27 07:12:46;;;;;;;;;;;;;;;22.98;96.01;98657.69;4991088;28;20658;-63
2021/07/27 07:15:11;;;;;;;;;;;;;;;23.49;95.46;98649.69;4979000;28;19981;-63
2021/07/27 07:17:37;;;;;;;;;;;;;;;24.78;84.90;98648.22;4977872;28;19944;-63
2021/07/27 07:20:02;;;;;;;;;;;;;;;25.60;84.65;98654.25;4989198;28;19925;-63
2021/07/27 07:22:29;;;;;;;;;;;;;;;24.14;93.15;98663.84;4980660;28;19918;-63
2021/07/27 07:24:55;;;;;;;;;;;;;;;24.86;86.61;98653.56;4979005;28;19922;-63
2021/07/27 07:27:21;;;;;;;;;;;;;;;23.35;92.69;98664.09;4978963;28;19918;-63
2021/07/27 07:29:47;;;;;;;;;;;;;;;24.27;89.06;98660.91;4978850;28;19996;-62
2021/07/27 07:32:12;;;;;;;;;;;;;;;24.26;87.90;98661.06;4978696;28;20053;-63
2021/07/27 07:34:37;;;;;;;;;;;;;;;24.21;89.23;98667.56;4979171;28;19933;-62
2021/07/27 07:37:05;;;;;;;;;;;;;;;23.84;90.26;98654.41;4982758;28;19924;-62
2021/07/27 07:39:31;;;;;;;;;;;;;;;24.08;85.42;98659.16;4988462;28;20415;-63
2021/07/27 07:41:58;;;;;;;;;;;;;;;23.02;91.38;98666.16;4979953;28;20005;-63
2021/07/27 07:44:24;;;;;;;;;;;;;;;24.92;82.85;98665.31;4977663;28;19917;-63
2021/07/27 07:46:49;;;;;;;;;;;;;;;26.36;75.49;98660.69;4980038;28;19928;-63
2021/07/27 07:49:15;;;;;;;;;;;;;;;24.34;77.07;98666.44;4981180;28;19914;-64
2021/07/27 07:51:46;;;;;;;;;;;;;;;23.58;86.08;98659.38;4992823;28;20367;-63
2021/07/27 07:54:11;;;;;;;;;;;;;;;25.91;76.78;98667.03;4988965;28;19960;-63
2021/07/27 07:56:37;;;;;;;;;;;;;;;26.23;75.29;98661.94;4982580;28;19922;-65
2021/07/27 07:59:02;;;;;;;;;;;;;;;25.37;80.08;98664.47;4958591;28;20264;-64
2021/07/27 08:01:28;;;;;;;;;;;;;;;24.86;79.77;98665.91;4978006;28;20017;-64
2021/07/27 08:03:53;;;;;;;;;;;;;;;26.50;71.15;98660.91;4985734;28;19996;-63
2021/07/27 08:06:19;;;;;;;;;;;;;;;27.06;66.87;98657.78;4981257;28;20221;-63
2021/07/27 08:08:46;;;;;;;;;;;;;;;26.89;70.36;98663.03;4977643;28;20128;-63
2021/07/27 08:11:12;;;;;;;;;;;;;;;26.66;70.99;98664.63;4988273;28;19918;-64
2021/07/27 08:13:37;;;;;;;;;;;;;;;25.99;74.85;98681.09;4993087;28;20009;-64
2021/07/27 08:16:06;;;;;;;;;;;;;;;26.27;77.61;98678.28;4989647;28;19921;-62
2021/07/27 08:18:32;;;;;;;;;;;;;;;25.51;75.90;98692.09;4982625;28;19925;-63
2021/07/27 08:20:57;;;;;;;;;;;;;;;26.81;70.29;98680.69;4989818;28;19933;-64
2021/07/27 08:23:23;;;;;;;;;;;;;;;26.85;70.69;98679.38;4986385;28;19918;-62
2021/07/27 08:25:48;;;;;;;;;;;;;;;27.28;66.34;98682.81;4978219;28;19928;-62
2021/07/27 08:28:13;;;;;;;;;;;;;;;27.06;66.94;98674.47;4991814;28;19924;-64
2021/07/27 08:30:39;;;;;;;;;;;;;;;27.50;66.13;98684.78;4979697;28;19924;-62
2021/07/27 08:33:04;;;;;;;;;;;;;;;27.34;66.30;98684.78;4973394;28;19917;-64
2021/07/27 08:35:30;;;;;;;;;;;;;;;26.79;72.07;98693.22;4990901;28;19952;-62
2021/07/27 08:37:55;;;;;;;;;;;;;;;27.11;67.61;98682.72;4990283;28;19914;-64
2021/07/27 08:40:22;;;;;;;;;;;;;;;27.40;67.71;98689.41;4982566;28;19953;-63
2021/07/27 08:42:48;;;;;;;;;;;;;;;27.77;62.84;98682.78;4983861;28;20443;-63
2021/07/27 08:45:13;;;;;;;;;;;;;;;27.49;61.76;98683.13;4985937;28;19914;-62
2021/07/27 08:47:46;;;;;;;;;;;;;;;28.23;63.98;98685.72;4986832;28;19917;-63
2021/07/27 08:50:11;;;;;;;;;;;;;;;28.53;62.33;98672.72;4970499;28;19913;-64
2021/07/27 08:52:38;;;;;;;;;;;;;;;28.88;57.80;98670.59;4985303;28;19921;-63
2021/07/27 08:55:05;;;;;;;;;;;;;;;28.87;56.22;98685.63;4973503;28;19922;-63
2021/07/27 08:57:32;;;;;;;;;;;;;;;28.62;58.72;98679.63;4973025;28;20068;-65
2021/07/27 08:59:57;;;;;;;;;;;;;;;28.15;62.03;98668.03;4970851;28;19926;-65
2021/07/27 09:02:32;;;;;;;;;;;;;;;28.17;60.39;98670.53;4972789;28;19964;-64
2021/07/27 09:05:03;;;;;;;;;;;;;;;27.95;62.86;98672.88;4972980;28;19954;-64
2021/07/27 09:07:29;;;;;;;;;;;;;;;29.46;57.09;98673.69;4973710;28;20387;-64
2021/07/27 09:09:55;;;;;;;;;;;;;;;29.47;58.48;98670.88;4988375;28;20017;-63
2021/07/27 09:12:20;;;;;;;;;;;;;;;29.86;55.07;98664.56;4985630;28;19918;-64
2021/07/27 09:14:47;;;;;;;;;;;;;;;30.03;53.23;98670.53;4983678;28;19972;-64
2021/07/27 09:17:13;;;;;;;;;;;;;;;28.61;54.70;98664.75;4973047;28;20726;-64
2021/07/27 09:19:41;;;;;;;;;;;;;;;29.43;53.14;98672.22;4968544;28;20016;-63
2021/07/27 09:22:07;;;;;;;;;;;;;;;30.28;50.93;98668.44;4981595;28;20063;-63
2021/07/27 09:24:33;;;;;;;;;;;;;;;29.35;51.37;98667.81;4989259;28;20422;-63
2021/07/27 09:27:05;;;;;;;;;;;;;;;29.53;50.38;98670.13;4990889;28;19921;-63
2021/07/27 09:29:31;;;;;;;;;;;;;;;30.33;50.71;98665.25;4984364;28;20667;-64
2021/07/27 09:31:58;;;;;;;;;;;;;;;29.55;54.43;98673.44;4979511;28;19948;-63
2021/07/27 09:34:24;;;;;;;;;;;;;;;28.83;54.15;98668.47;4988097;28;20282;-63
2021/07/27 09:37:02;;;;;;;;;;;;;;;29.73;49.84;98664.34;4983514;28;20542;-63
2021/07/27 09:39:27;;;;;;;;;;;;;;;30.21;48.66;98662.19;4978856;28;19925;-63
2021/07/27 09:42:09;;;;;;;;;;;;;;;30.02;47.88;98652.97;4976620;28;19921;-62
2021/07/27 09:44:35;;;;;;;;;;;;;;;28.68;55.79;98656.94;4994239;28;19914;-62
2021/07/27 09:47:01;;;;;;;;;;;;;;;29.17;53.86;98654.00;4994835;28;19928;-63
2021/07/27 09:49:27;;;;;;;;;;;;;;;28.89;59.31;98654.47;4978287;28;20068;-63
2021/07/27 09:51:53;;;;;;;;;;;;;;;29.39;49.90;98655.00;4979565;28;20371;-66
2021/07/27 09:54:19;;;;;;;;;;;;;;;29.10;50.17;98663.66;4981141;28;20029;-63
2021/07/27 09:56:44;;;;;;;;;;;;;;;29.38;53.80;98663.97;4991826;28;19918;-63
2021/07/27 09:59:10;;;;;;;;;;;;;;;29.90;48.65;98659.69;4994629;28;19918;-63
2021/07/27 10:01:35;;;;;;;;;;;;;;;30.18;50.04;98660.75;4994693;28;19965;-63
2021/07/27 10:04:01;;;;;;;;;;;;;;;29.99;52.59;98671.88;4992903;28;22307;-63
2021/07/27 10:06:27;;;;;;;;;;;;;;;29.43;51.20;98664.25;4992557;28;19921;-63
2021/07/27 10:08:59;;;;;;;;;;;;;;;29.15;47.92;98662.16;4994531;28;19918;-62
2021/07/27 10:11:41;;;;;;;;;;;;;;;29.51;54.01;98663.34;4992357;28;20370;-62
2021/07/27 10:14:11;;;;;;;;;;;;;;;29.29;51.79;98662.38;4982513;28;19980;-64
2021/07/27 10:16:36;;;;;;;;;;;;;;;27.97;50.89;98672.72;4982085;28;19968;-64
2021/07/27 10:19:21;;;;;;;;;;;;;;;28.12;53.18;98670.19;4984620;28;19967;-63
2021/07/27 10:21:47;;;;;;;;;;;;;;;28.66;48.83;98673.00;4995908;28;19926;-63
2021/07/27 10:24:14;;;;;;;;;;;;;;;28.84;52.88;98669.28;4996449;28;20005;-63
2021/07/27 10:26:40;;;;;;;;;;;;;;;29.34;51.59;98675.94;4989587;28;19925;-63
2021/07/27 10:29:05;;;;;;;;;;;;;;;29.40;52.09;98675.22;4968208;28;19926;-63
2021/07/27 10:31:32;;;;;;;;;;;;;;;29.44;52.19;98676.50;4972794;28;20000;-63
2021/07/27 10:33:57;;;;;;;;;;;;;;;28.57;51.14;98668.72;4981655;28;19940;-63
2021/07/27 10:36:27;;;;;;;;;;;;;;;29.20;50.74;98674.88;4969737;28;19921;-63
2021/07/27 10:38:54;;;;;;;;;;;;;;;28.80;51.48;98678.56;4988938;28;19993;-63
2021/07/27 10:41:22;;;;;;;;;;;;;;;28.76;48.92;98676.28;4993117;28;20017;-62
2021/07/27 10:43:47;;;;;;;;;;;;;;;28.41;49.79;98679.38;4991630;28;19929;-62
2021/07/27 10:46:13;;;;;;;;;;;;;;;27.58;52.42;98681.31;4979301;28;20331;-64
2021/07/27 10:48:39;;;;;;;;;;;;;;;26.73;60.45;98683.28;4975100;28;19928;-62
2021/07/27 10:51:05;;;;;;;;;;;;;;;27.33;54.83;98676.03;4975109;28;19924;-62
2021/07/27 10:53:34;;;;;;;;;;;;;;;27.41;56.08;98683.13;4978823;28;19918;-62
2021/07/27 10:56:02;;;;;;;;;;;;;;;27.19;53.85;98691.69;4988252;28;19933;-63
2021/07/27 10:58:28;;;;;;;;;;;;;;;27.05;54.19;98680.75;4982981;28;19922;-63
2021/07/27 11:00:59;;;;;;;;;;;;;;;28.21;54.78;98685.06;4982399;28;19921;-64
2021/07/27 11:03:27;;;;;;;;;;;;;;;28.45;54.08;98685.97;4970778;28;19922;-62
2021/07/27 11:06:00;;;;;;;;;;;;;;;28.16;50.77;98687.38;4977742;28;19988;-61
2021/07/27 11:08:27;;;;;;;;;;;;;;;28.46;48.54;98688.44;4974914;28;19922;-63
2021/07/27 11:11:08;;;;;;;;;;;;;;;28.78;49.97;98682.22;4979835;28;19969;-64
2021/07/27 11:13:35;;;;;;;;;;;;;;;28.14;54.17;98678.78;4979502;28;20005;-64
2021/07/27 11:16:00;;;;;;;;;;;;;;;28.23;50.45;98680.41;4973759;28;19929;-62
2021/07/27 11:18:28;;;;;;;;;;;;;;;29.85;49.59;98678.84;4975770;28;20706;-63
2021/07/27 11:20:53;;;;;;;;;;;;;;;29.02;48.69;98677.78;4984686;28;19933;-63
2021/07/27 11:23:19;;;;;;;;;;;;;;;31.15;45.89;98659.66;4976262;28;19922;-61
2021/07/27 11:25:56;;;;;;;;;;;;;;;30.57;41.78;98661.47;4987856;28;19956;-61
2021/07/27 11:28:21;;;;;;;;;;;;;;;30.89;46.60;98654.09;4987813;28;19926;-62
2021/07/27 11:30:47;;;;;;;;;;;;;;;31.65;44.16;98646.41;4987844;28;19920;-62
2021/07/27 11:33:13;;;;;;;;;;;;;;;30.74;46.23;98646.13;4981766;28;19926;-61
2021/07/27 11:35:43;;;;;;;;;;;;;;;29.57;46.23;98634.28;4978580;28;19922;-61
2021/07/27 11:38:09;;;;;;;;;;;;;;;29.61;44.70;98650.69;4986763;28;19914;-62
2021/07/27 11:40:35;;;;;;;;;;;;;;;30.34;44.22;98638.50;4983861;28;19971;-61
2021/07/27 11:43:05;;;;;;;;;;;;;;;28.04;49.47;98646.41;4977609;28;20004;-61
2021/07/27 11:45:31;;;;;;;;;;;;;;;30.16;45.05;98640.69;4979311;28;19922;-63
2021/07/27 11:47:57;;;;;;;;;;;;;;;31.52;43.50;98633.84;4984495;28;20320;-61
2021/07/27 11:50:28;;;;;;;;;;;;;;;30.31;44.38;98644.19;4989259;28;19917;-62
2021/07/27 11:52:57;;;;;;;;;;;;;;;30.94;43.25;98641.88;4988505;28;20005;-62
2021/07/27 11:55:27;;;;;;;;;;;;;;;30.05;41.44;98641.13;4977821;28;20383;-62
2021/07/27 11:57:52;;;;;;;;;;;;;;;31.11;44.09;98637.16;4987727;28;19925;-62
2021/07/27 12:00:18;;;;;;;;;;;;;;;30.10;41.13;98638.75;4990508;28;19922;-64
2021/07/27 12:02:43;;;;;;;;;;;;;;;30.70;40.53;98635.06;4976533;28;19921;-63
2021/07/27 12:05:09;;;;;;;;;;;;;;;31.03;41.65;98634.59;4976860;28;19933;-64
2021/07/27 12:07:34;;;;;;;;;;;;;;;31.39;41.07;98631.03;4977075;28;19922;-64
2021/07/27 12:10:00;;;;;;;;;;;;;;;30.62;40.27;98632.50;4978476;28;19918;-61
2021/07/27 12:12:25;;;;;;;;;;;;;;;30.94;42.31;98630.41;4985029;28;19991;-63
2021/07/27 12:14:51;;;;;;;;;;;;;;;31.85;42.71;98630.59;4979263;28;19948;-64
2021/07/27 12:17:16;;;;;;;;;;;;;;;31.10;43.40;98622.19;4976614;28;20687;-63
2021/07/27 12:19:41;;;;;;;;;;;;;;;31.48;42.08;98616.59;4977561;28;19928;-63
2021/07/27 12:22:07;;;;;;;;;;;;;;;31.55;41.92;98611.34;4980825;28;19926;-61
2021/07/27 12:24:33;;;;;;;;;;;;;;;30.10;41.73;98612.19;4978441;28;19925;-62
2021/07/27 12:26:58;;;;;;;;;;;;;;;31.74;39.35;98604.50;4978770;28;20004;-62
2021/07/27 12:29:24;;;;;;;;;;;;;;;30.48;40.39;98601.47;4980456;28;19914;-62
2021/07/27 12:31:49;;;;;;;;;;;;;;;31.44;39.32;98596.72;4989330;28;19913;-61
2021/07/27 12:34:14;;;;;;;;;;;;;;;32.52;44.23;98589.13;4988715;28;19913;-62
2021/07/27 12:36:40;;;;;;;;;;;;;;;31.37;38.24;98593.16;4990141;28;19917;-63
2021/07/27 12:39:05;;;;;;;;;;;;;;;28.63;42.73;98601.81;4988863;28;19941;-62
2021/07/27 12:41:31;;;;;;;;;;;;;;;30.53;43.42;98591.09;4974105;28;20024;-62
2021/07/27 12:43:56;;;;;;;;;;;;;;;31.67;40.26;98589.28;4979244;28;20766;-61
2021/07/27 12:46:24;;;;;;;;;;;;;;;32.28;39.63;98585.97;4980009;28;19918;-61
2021/07/27 12:48:50;;;;;;;;;;;;;;;30.58;40.93;98594.00;4986343;28;19925;-62
2021/07/27 12:51:16;;;;;;;;;;;;;;;30.48;43.88;98588.19;4984128;28;19953;-62
2021/07/27 12:53:42;;;;;;;;;;;;;;;30.92;41.72;98581.91;4989908;28;19997;-60
2021/07/27 12:56:07;;;;;;;;;;;;;;;31.31;41.81;98588.59;4979830;28;19922;-62
2021/07/27 12:58:33;;;;;;;;;;;;;;;31.92;42.34;98585.34;4978213;28;19929;-62
2021/07/27 13:00:58;;;;;;;;;;;;;;;32.43;38.28;98582.31;4980323;28;19925;-63
2021/07/27 13:03:23;;;;;;;;;;;;;;;31.49;36.98;98575.66;4979241;28;19937;-61
2021/07/27 13:05:49;;;;;;;;;;;;;;;31.49;38.71;98574.84;4979006;28;20011;-63
2021/07/27 13:08:14;;;;;;;;;;;;;;;31.96;38.59;98581.28;4983337;28;19944;-63